Stallion Springs, California
Current Conditions -  °F | °C
As of 11:15 AM on Friday 28 Nov 2014 (Local Time) from KTSP Reporting Station
Clear Clear  
Wind Chill: 22°   Ceiling: Unl
Heat Index: 22°   Visibility: 10mi
Dew Point: -7°   Wind: 14mph
Humidity: 14%   Direction: 280°W
Pressure: 30.09"   Gusts: NA
Location:  35.1338°N, 118.552°W
Report Text: KTSP 281915Z AUTO 28012KT 10SM CLR 22/M07 A3009 RMK AO2
Loading
Personal Weather Stations






























Interactive Weather Map New forecast layout! Learn more

10-Day Weather Forecast

Advertisements
Track Severe Weather on mobile